sensor_id;sensor_type;location;lat;lon;timestamp;P1;durP1;ratioP1;P2;durP2;ratioP2
18796;SDS011;9526;52.612;13.300;2023-03-31T00:01:54;14.10;;;4.93;;
18796;SDS011;9526;52.612;13.300;2023-03-31T00:04:18;12.40;;;5.65;;
18796;SDS011;9526;52.612;13.300;2023-03-31T00:06:44;20.25;;;5.70;;
18796;SDS011;9526;52.612;13.300;2023-03-31T00:09:09;8.80;;;4.57;;
18796;SDS011;9526;52.612;13.300;2023-03-31T00:11:37;11.48;;;4.50;;
18796;SDS011;9526;52.612;13.300;2023-03-31T00:14:01;12.90;;;4.35;;
18796;SDS011;9526;52.612;13.300;2023-03-31T00:16:27;16.60;;;4.85;;
18796;SDS011;9526;52.612;13.300;2023-03-31T00:18:51;11.77;;;4.18;;
18796;SDS011;9526;52.612;13.300;2023-03-31T00:21:16;11.40;;;4.20;;
18796;SDS011;9526;52.612;13.300;2023-03-31T00:23:50;10.60;;;3.78;;
18796;SDS011;9526;52.612;13.300;2023-03-31T00:26:16;7.50;;;3.75;;
18796;SDS011;9526;52.612;13.300;2023-03-31T00:28:41;9.10;;;3.60;;
18796;SDS011;9526;52.612;13.300;2023-03-31T00:31:05;13.57;;;3.97;;
18796;SDS011;9526;52.612;13.300;2023-03-31T00:33:29;10.38;;;3.33;;
18796;SDS011;9526;52.612;13.300;2023-03-31T00:35:53;9.18;;;3.30;;
18796;SDS011;9526;52.612;13.300;2023-03-31T00:38:17;8.38;;;2.97;;
18796;SDS011;9526;52.612;13.300;2023-03-31T00:40:43;10.02;;;3.25;;
18796;SDS011;9526;52.612;13.300;2023-03-31T00:43:08;11.95;;;3.58;;
18796;SDS011;9526;52.612;13.300;2023-03-31T00:45:52;10.85;;;3.33;;
18796;SDS011;9526;52.612;13.300;2023-03-31T00:48:18;7.90;;;3.22;;
18796;SDS011;9526;52.612;13.300;2023-03-31T00:50:45;8.95;;;3.30;;
18796;SDS011;9526;52.612;13.300;2023-03-31T00:53:15;7.35;;;2.75;;
18796;SDS011;9526;52.612;13.300;2023-03-31T00:55:42;9.90;;;3.75;;
18796;SDS011;9526;52.612;13.300;2023-03-31T00:58:09;13.45;;;3.25;;
18796;SDS011;9526;52.612;13.300;2023-03-31T01:00:35;8.85;;;2.95;;
18796;SDS011;9526;52.612;13.300;2023-03-31T01:03:02;13.35;;;3.03;;
18796;SDS011;9526;52.612;13.300;2023-03-31T01:05:31;9.15;;;3.00;;
18796;SDS011;9526;52.612;13.300;2023-03-31T01:07:58;8.10;;;3.25;;
18796;SDS011;9526;52.612;13.300;2023-03-31T01:10:23;10.52;;;3.03;;
18796;SDS011;9526;52.612;13.300;2023-03-31T01:12:49;9.07;;;3.03;;
18796;SDS011;9526;52.612;13.300;2023-03-31T01:15:16;9.63;;;3.17;;
18796;SDS011;9526;52.612;13.300;2023-03-31T01:17:40;8.15;;;2.78;;
18796;SDS011;9526;52.612;13.300;2023-03-31T01:20:09;9.38;;;3.00;;
18796;SDS011;9526;52.612;13.300;2023-03-31T01:25:59;7.22;;;2.63;;
18796;SDS011;9526;52.612;13.300;2023-03-31T01:29:00;11.40;;;3.15;;
18796;SDS011;9526;52.612;13.300;2023-03-31T01:35:09;9.77;;;2.65;;
18796;SDS011;9526;52.612;13.300;2023-03-31T01:38:09;9.18;;;2.85;;
18796;SDS011;9526;52.612;13.300;2023-03-31T01:41:20;6.53;;;2.75;;
18796;SDS011;9526;52.612;13.300;2023-03-31T01:43:58;12.32;;;3.25;;
18796;SDS011;9526;52.612;13.300;2023-03-31T01:46:31;8.68;;;2.60;;
18796;SDS011;9526;52.612;13.300;2023-03-31T01:48:59;6.80;;;2.70;;
18796;SDS011;9526;52.612;13.300;2023-03-31T01:51:34;7.07;;;2.67;;
18796;SDS011;9526;52.612;13.300;2023-03-31T01:54:11;8.25;;;2.53;;
18796;SDS011;9526;52.612;13.300;2023-03-31T01:56:44;6.18;;;1.98;;
18796;SDS011;9526;52.612;13.300;2023-03-31T01:59:13;10.23;;;2.92;;
18796;SDS011;9526;52.612;13.300;2023-03-31T02:01:44;9.85;;;2.95;;
18796;SDS011;9526;52.612;13.300;2023-03-31T02:04:16;8.65;;;2.58;;
18796;SDS011;9526;52.612;13.300;2023-03-31T02:06:44;9.15;;;2.40;;
18796;SDS011;9526;52.612;13.300;2023-03-31T02:09:18;8.88;;;2.95;;
18796;SDS011;9526;52.612;13.300;2023-03-31T02:11:47;9.02;;;2.80;;
18796;SDS011;9526;52.612;13.300;2023-03-31T02:14:13;10.60;;;2.72;;
18796;SDS011;9526;52.612;13.300;2023-03-31T02:16:42;4.57;;;2.22;;
18796;SDS011;9526;52.612;13.300;2023-03-31T02:19:10;6.63;;;2.20;;
18796;SDS011;9526;52.612;13.300;2023-03-31T02:21:39;6.72;;;2.50;;
18796;SDS011;9526;52.612;13.300;2023-03-31T02:24:04;9.90;;;2.65;;
18796;SDS011;9526;52.612;13.300;2023-03-31T02:26:33;5.72;;;2.45;;
18796;SDS011;9526;52.612;13.300;2023-03-31T02:29:01;11.73;;;2.63;;
18796;SDS011;9526;52.612;13.300;2023-03-31T02:31:26;8.63;;;3.10;;
18796;SDS011;9526;52.612;13.300;2023-03-31T02:34:00;6.63;;;2.15;;
18796;SDS011;9526;52.612;13.300;2023-03-31T02:36:25;5.10;;;2.15;;
18796;SDS011;9526;52.612;13.300;2023-03-31T02:38:51;7.55;;;2.40;;
18796;SDS011;9526;52.612;13.300;2023-03-31T02:41:20;10.15;;;2.58;;
18796;SDS011;9526;52.612;13.300;2023-03-31T02:43:44;6.13;;;2.35;;
18796;SDS011;9526;52.612;13.300;2023-03-31T02:46:10;4.03;;;2.05;;
18796;SDS011;9526;52.612;13.300;2023-03-31T02:48:34;9.02;;;2.67;;
18796;SDS011;9526;52.612;13.300;2023-03-31T02:57:45;3.97;;;2.00;;
18796;SDS011;9526;52.612;13.300;2023-03-31T03:00:50;6.30;;;1.80;;
18796;SDS011;9526;52.612;13.300;2023-03-31T03:03:32;5.97;;;2.05;;
18796;SDS011;9526;52.612;13.300;2023-03-31T03:06:07;10.05;;;2.00;;
18796;SDS011;9526;52.612;13.300;2023-03-31T03:09:00;6.57;;;2.03;;
18796;SDS011;9526;52.612;13.300;2023-03-31T03:11:36;5.05;;;2.00;;
18796;SDS011;9526;52.612;13.300;2023-03-31T03:14:08;6.50;;;2.17;;
18796;SDS011;9526;52.612;13.300;2023-03-31T03:16:43;5.85;;;1.83;;
18796;SDS011;9526;52.612;13.300;2023-03-31T03:19:16;8.02;;;1.80;;
18796;SDS011;9526;52.612;13.300;2023-03-31T03:21:43;7.65;;;2.00;;
18796;SDS011;9526;52.612;13.300;2023-03-31T03:24:08;8.18;;;2.28;;
18796;SDS011;9526;52.612;13.300;2023-03-31T03:26:31;6.10;;;1.83;;
18796;SDS011;9526;52.612;13.300;2023-03-31T03:28:55;5.88;;;2.38;;
18796;SDS011;9526;52.612;13.300;2023-03-31T03:31:20;12.15;;;2.40;;
18796;SDS011;9526;52.612;13.300;2023-03-31T03:33:46;7.68;;;2.10;;
18796;SDS011;9526;52.612;13.300;2023-03-31T03:36:12;6.38;;;2.30;;
18796;SDS011;9526;52.612;13.300;2023-03-31T03:38:36;8.20;;;2.20;;
18796;SDS011;9526;52.612;13.300;2023-03-31T03:40:59;5.25;;;2.25;;
18796;SDS011;9526;52.612;13.300;2023-03-31T03:43:23;5.50;;;2.10;;
18796;SDS011;9526;52.612;13.300;2023-03-31T03:45:47;6.25;;;2.03;;
18796;SDS011;9526;52.612;13.300;2023-03-31T03:48:11;10.07;;;2.20;;
18796;SDS011;9526;52.612;13.300;2023-03-31T03:50:36;6.63;;;2.10;;
18796;SDS011;9526;52.612;13.300;2023-03-31T03:53:01;9.40;;;2.17;;
18796;SDS011;9526;52.612;13.300;2023-03-31T03:55:25;8.85;;;2.17;;
18796;SDS011;9526;52.612;13.300;2023-03-31T03:57:49;13.70;;;2.33;;
18796;SDS011;9526;52.612;13.300;2023-03-31T04:00:13;6.93;;;2.08;;
18796;SDS011;9526;52.612;13.300;2023-03-31T04:02:37;5.85;;;2.03;;
18796;SDS011;9526;52.612;13.300;2023-03-31T04:05:01;7.57;;;2.20;;
18796;SDS011;9526;52.612;13.300;2023-03-31T04:07:25;5.70;;;2.10;;
18796;SDS011;9526;52.612;13.300;2023-03-31T04:09:50;5.70;;;1.90;;
18796;SDS011;9526;52.612;13.300;2023-03-31T04:12:14;3.97;;;1.85;;
18796;SDS011;9526;52.612;13.300;2023-03-31T04:14:38;7.20;;;1.90;;
18796;SDS011;9526;52.612;13.300;2023-03-31T04:17:02;5.50;;;1.90;;
18796;SDS011;9526;52.612;13.300;2023-03-31T04:19:27;7.18;;;2.20;;
18796;SDS011;9526;52.612;13.300;2023-03-31T04:21:51;7.00;;;2.10;;
18796;SDS011;9526;52.612;13.300;2023-03-31T04:24:19;6.07;;;1.98;;
18796;SDS011;9526;52.612;13.300;2023-03-31T04:26:44;7.72;;;2.17;;
18796;SDS011;9526;52.612;13.300;2023-03-31T04:29:12;6.43;;;2.05;;
18796;SDS011;9526;52.612;13.300;2023-03-31T04:31:37;5.43;;;1.83;;
18796;SDS011;9526;52.612;13.300;2023-03-31T04:34:03;7.93;;;2.28;;
18796;SDS011;9526;52.612;13.300;2023-03-31T04:36:34;5.55;;;1.90;;
18796;SDS011;9526;52.612;13.300;2023-03-31T04:39:03;5.72;;;1.92;;
18796;SDS011;9526;52.612;13.300;2023-03-31T04:41:31;6.47;;;2.50;;
18796;SDS011;9526;52.612;13.300;2023-03-31T04:43:56;10.18;;;2.10;;
18796;SDS011;9526;52.612;13.300;2023-03-31T04:46:20;7.85;;;1.98;;
18796;SDS011;9526;52.612;13.300;2023-03-31T04:48:44;6.97;;;2.03;;
18796;SDS011;9526;52.612;13.300;2023-03-31T04:51:08;9.52;;;2.25;;
18796;SDS011;9526;52.612;13.300;2023-03-31T04:53:35;4.75;;;2.08;;
18796;SDS011;9526;52.612;13.300;2023-03-31T04:55:59;5.40;;;1.95;;
18796;SDS011;9526;52.612;13.300;2023-03-31T04:58:23;4.90;;;2.00;;
18796;SDS011;9526;52.612;13.300;2023-03-31T05:00:48;5.22;;;1.88;;
18796;SDS011;9526;52.612;13.300;2023-03-31T05:03:13;9.88;;;1.98;;
18796;SDS011;9526;52.612;13.300;2023-03-31T05:05:38;6.15;;;1.83;;
18796;SDS011;9526;52.612;13.300;2023-03-31T05:08:01;7.50;;;1.90;;
18796;SDS011;9526;52.612;13.300;2023-03-31T05:10:26;9.45;;;2.22;;
18796;SDS011;9526;52.612;13.300;2023-03-31T05:12:49;4.97;;;1.85;;
18796;SDS011;9526;52.612;13.300;2023-03-31T05:15:13;8.40;;;2.10;;
18796;SDS011;9526;52.612;13.300;2023-03-31T05:17:40;7.00;;;1.70;;
18796;SDS011;9526;52.612;13.300;2023-03-31T05:20:05;9.68;;;2.20;;
18796;SDS011;9526;52.612;13.300;2023-03-31T05:22:31;5.75;;;1.95;;
18796;SDS011;9526;52.612;13.300;2023-03-31T05:24:58;6.20;;;1.92;;
18796;SDS011;9526;52.612;13.300;2023-03-31T05:27:22;9.48;;;2.65;;
18796;SDS011;9526;52.612;13.300;2023-03-31T05:29:46;6.72;;;2.50;;
18796;SDS011;9526;52.612;13.300;2023-03-31T05:32:09;11.32;;;5.15;;
18796;SDS011;9526;52.612;13.300;2023-03-31T05:34:35;8.80;;;3.17;;
18796;SDS011;9526;52.612;13.300;2023-03-31T05:36:59;12.35;;;2.85;;
18796;SDS011;9526;52.612;13.300;2023-03-31T05:39:23;7.50;;;2.40;;
18796;SDS011;9526;52.612;13.300;2023-03-31T05:41:47;11.18;;;2.33;;
18796;SDS011;9526;52.612;13.300;2023-03-31T05:44:11;6.45;;;2.60;;
18796;SDS011;9526;52.612;13.300;2023-03-31T05:46:35;6.00;;;2.42;;
18796;SDS011;9526;52.612;13.300;2023-03-31T05:49:00;7.20;;;2.53;;
18796;SDS011;9526;52.612;13.300;2023-03-31T05:51:25;8.18;;;2.53;;
18796;SDS011;9526;52.612;13.300;2023-03-31T05:53:49;5.63;;;1.98;;
18796;SDS011;9526;52.612;13.300;2023-03-31T05:56:13;8.77;;;2.50;;
18796;SDS011;9526;52.612;13.300;2023-03-31T05:58:37;11.38;;;2.30;;
18796;SDS011;9526;52.612;13.300;2023-03-31T06:01:02;9.88;;;2.40;;
18796;SDS011;9526;52.612;13.300;2023-03-31T06:03:29;9.27;;;2.60;;
18796;SDS011;9526;52.612;13.300;2023-03-31T06:05:53;6.40;;;2.30;;
18796;SDS011;9526;52.612;13.300;2023-03-31T06:08:18;8.68;;;2.55;;
18796;SDS011;9526;52.612;13.300;2023-03-31T06:10:42;8.20;;;2.95;;
18796;SDS011;9526;52.612;13.300;2023-03-31T06:13:06;9.77;;;2.40;;
18796;SDS011;9526;52.612;13.300;2023-03-31T06:15:30;15.93;;;2.58;;
18796;SDS011;9526;52.612;13.300;2023-03-31T06:17:54;8.82;;;2.35;;
18796;SDS011;9526;52.612;13.300;2023-03-31T06:20:18;11.80;;;2.55;;
18796;SDS011;9526;52.612;13.300;2023-03-31T06:22:49;7.63;;;2.20;;
18796;SDS011;9526;52.612;13.300;2023-03-31T06:25:14;9.27;;;2.85;;
18796;SDS011;9526;52.612;13.300;2023-03-31T06:27:38;7.22;;;2.33;;
18796;SDS011;9526;52.612;13.300;2023-03-31T06:30:02;10.63;;;2.80;;
18796;SDS011;9526;52.612;13.300;2023-03-31T06:32:26;4.18;;;2.30;;
18796;SDS011;9526;52.612;13.300;2023-03-31T06:34:50;5.10;;;2.20;;
18796;SDS011;9526;52.612;13.300;2023-03-31T06:37:13;10.95;;;3.75;;
18796;SDS011;9526;52.612;13.300;2023-03-31T06:39:37;9.18;;;2.03;;
18796;SDS011;9526;52.612;13.300;2023-03-31T06:42:02;9.15;;;2.38;;
18796;SDS011;9526;52.612;13.300;2023-03-31T06:44:34;7.82;;;2.20;;
18796;SDS011;9526;52.612;13.300;2023-03-31T06:46:57;7.47;;;2.20;;
18796;SDS011;9526;52.612;13.300;2023-03-31T06:49:21;7.10;;;2.22;;
18796;SDS011;9526;52.612;13.300;2023-03-31T06:51:45;6.15;;;2.30;;
18796;SDS011;9526;52.612;13.300;2023-03-31T06:54:09;7.63;;;2.72;;
18796;SDS011;9526;52.612;13.300;2023-03-31T06:56:33;10.68;;;3.42;;
18796;SDS011;9526;52.612;13.300;2023-03-31T06:58:58;7.35;;;2.00;;
18796;SDS011;9526;52.612;13.300;2023-03-31T07:01:22;8.55;;;2.65;;
18796;SDS011;9526;52.612;13.300;2023-03-31T07:03:46;7.05;;;2.17;;
18796;SDS011;9526;52.612;13.300;2023-03-31T07:06:10;6.45;;;2.83;;
18796;SDS011;9526;52.612;13.300;2023-03-31T07:08:33;10.00;;;2.90;;
18796;SDS011;9526;52.612;13.300;2023-03-31T07:10:58;6.15;;;2.30;;
18796;SDS011;9526;52.612;13.300;2023-03-31T07:13:23;5.43;;;1.95;;
18796;SDS011;9526;52.612;13.300;2023-03-31T07:15:49;7.47;;;2.45;;
18796;SDS011;9526;52.612;13.300;2023-03-31T07:18:13;8.32;;;2.17;;
18796;SDS011;9526;52.612;13.300;2023-03-31T07:20:37;6.47;;;1.70;;
18796;SDS011;9526;52.612;13.300;2023-03-31T07:23:02;7.47;;;1.88;;
18796;SDS011;9526;52.612;13.300;2023-03-31T07:25:27;7.60;;;2.50;;
18796;SDS011;9526;52.612;13.300;2023-03-31T07:27:51;10.23;;;2.28;;
18796;SDS011;9526;52.612;13.300;2023-03-31T07:30:16;7.63;;;1.98;;
18796;SDS011;9526;52.612;13.300;2023-03-31T07:32:44;6.50;;;1.77;;
18796;SDS011;9526;52.612;13.300;2023-03-31T07:35:10;6.05;;;1.95;;
18796;SDS011;9526;52.612;13.300;2023-03-31T07:37:34;5.70;;;1.80;;
18796;SDS011;9526;52.612;13.300;2023-03-31T07:39:58;5.93;;;1.88;;
18796;SDS011;9526;52.612;13.300;2023-03-31T07:42:22;7.68;;;2.10;;
18796;SDS011;9526;52.612;13.300;2023-03-31T07:44:45;8.50;;;2.00;;
18796;SDS011;9526;52.612;13.300;2023-03-31T07:47:09;7.05;;;2.10;;
18796;SDS011;9526;52.612;13.300;2023-03-31T07:49:35;18.92;;;2.80;;
18796;SDS011;9526;52.612;13.300;2023-03-31T07:51:59;7.10;;;1.90;;
18796;SDS011;9526;52.612;13.300;2023-03-31T07:54:23;6.82;;;1.77;;
18796;SDS011;9526;52.612;13.300;2023-03-31T07:56:47;8.68;;;2.00;;
18796;SDS011;9526;52.612;13.300;2023-03-31T07:59:11;6.93;;;1.77;;
18796;SDS011;9526;52.612;13.300;2023-03-31T08:01:35;12.85;;;1.83;;
18796;SDS011;9526;52.612;13.300;2023-03-31T08:03:59;7.90;;;1.70;;
18796;SDS011;9526;52.612;13.300;2023-03-31T08:06:24;8.52;;;1.90;;
18796;SDS011;9526;52.612;13.300;2023-03-31T08:08:49;11.32;;;2.17;;
18796;SDS011;9526;52.612;13.300;2023-03-31T08:11:14;10.73;;;2.17;;
18796;SDS011;9526;52.612;13.300;2023-03-31T08:13:37;8.10;;;1.88;;
18796;SDS011;9526;52.612;13.300;2023-03-31T08:16:01;7.18;;;1.75;;
18796;SDS011;9526;52.612;13.300;2023-03-31T08:18:26;4.65;;;1.80;;
18796;SDS011;9526;52.612;13.300;2023-03-31T08:20:49;8.52;;;1.92;;
18796;SDS011;9526;52.612;13.300;2023-03-31T08:23:15;9.10;;;2.85;;
18796;SDS011;9526;52.612;13.300;2023-03-31T08:25:38;5.53;;;1.80;;
18796;SDS011;9526;52.612;13.300;2023-03-31T08:28:02;4.03;;;1.52;;
18796;SDS011;9526;52.612;13.300;2023-03-31T08:30:27;8.23;;;2.08;;
18796;SDS011;9526;52.612;13.300;2023-03-31T08:32:51;7.45;;;2.00;;
18796;SDS011;9526;52.612;13.300;2023-03-31T08:35:15;7.03;;;1.80;;
18796;SDS011;9526;52.612;13.300;2023-03-31T08:37:39;7.03;;;2.10;;
18796;SDS011;9526;52.612;13.300;2023-03-31T08:40:05;4.75;;;1.65;;
18796;SDS011;9526;52.612;13.300;2023-03-31T08:42:34;5.63;;;1.52;;
18796;SDS011;9526;52.612;13.300;2023-03-31T08:45:02;7.38;;;2.47;;
18796;SDS011;9526;52.612;13.300;2023-03-31T08:47:31;6.53;;;1.90;;
18796;SDS011;9526;52.612;13.300;2023-03-31T08:49:59;6.10;;;1.73;;
18796;SDS011;9526;52.612;13.300;2023-03-31T08:52:30;7.28;;;1.73;;
18796;SDS011;9526;52.612;13.300;2023-03-31T08:54:57;6.43;;;1.63;;
18796;SDS011;9526;52.612;13.300;2023-03-31T08:57:27;5.40;;;1.67;;
18796;SDS011;9526;52.612;13.300;2023-03-31T08:59:59;6.53;;;1.70;;
18796;SDS011;9526;52.612;13.300;2023-03-31T09:02:28;11.70;;;2.25;;
18796;SDS011;9526;52.612;13.300;2023-03-31T09:08:20;5.20;;;1.55;;
18796;SDS011;9526;52.612;13.300;2023-03-31T09:10:57;8.52;;;1.45;;
18796;SDS011;9526;52.612;13.300;2023-03-31T09:13:37;7.80;;;1.80;;
18796;SDS011;9526;52.612;13.300;2023-03-31T09:16:43;11.68;;;1.70;;
18796;SDS011;9526;52.612;13.300;2023-03-31T09:19:15;6.57;;;1.30;;
18796;SDS011;9526;52.612;13.300;2023-03-31T09:21:43;16.45;;;2.13;;
18796;SDS011;9526;52.612;13.300;2023-03-31T09:24:12;4.57;;;1.70;;
18796;SDS011;9526;52.612;13.300;2023-03-31T09:26:42;4.60;;;1.50;;
18796;SDS011;9526;52.612;13.300;2023-03-31T09:29:13;7.45;;;1.60;;
18796;SDS011;9526;52.612;13.300;2023-03-31T09:31:40;7.65;;;2.00;;
18796;SDS011;9526;52.612;13.300;2023-03-31T09:34:09;9.75;;;1.50;;
18796;SDS011;9526;52.612;13.300;2023-03-31T09:36:38;3.88;;;1.65;;
18796;SDS011;9526;52.612;13.300;2023-03-31T09:39:02;6.47;;;1.92;;
18796;SDS011;9526;52.612;13.300;2023-03-31T09:41:27;4.75;;;1.50;;
18796;SDS011;9526;52.612;13.300;2023-03-31T09:43:54;10.75;;;1.75;;
18796;SDS011;9526;52.612;13.300;2023-03-31T09:46:20;7.93;;;1.90;;
18796;SDS011;9526;52.612;13.300;2023-03-31T09:48:54;6.13;;;1.73;;
18796;SDS011;9526;52.612;13.300;2023-03-31T09:51:25;6.53;;;1.55;;
18796;SDS011;9526;52.612;13.300;2023-03-31T09:53:53;4.38;;;1.70;;
18796;SDS011;9526;52.612;13.300;2023-03-31T09:56:33;4.75;;;1.88;;
18796;SDS011;9526;52.612;13.300;2023-03-31T09:59:12;4.25;;;1.40;;
18796;SDS011;9526;52.612;13.300;2023-03-31T10:01:40;5.07;;;1.67;;
18796;SDS011;9526;52.612;13.300;2023-03-31T10:04:06;8.80;;;1.92;;
18796;SDS011;9526;52.612;13.300;2023-03-31T10:06:30;7.53;;;1.80;;
18796;SDS011;9526;52.612;13.300;2023-03-31T10:08:54;5.95;;;2.08;;
18796;SDS011;9526;52.612;13.300;2023-03-31T10:11:21;4.10;;;1.83;;
18796;SDS011;9526;52.612;13.300;2023-03-31T10:13:48;9.52;;;1.58;;
18796;SDS011;9526;52.612;13.300;2023-03-31T10:16:22;5.57;;;1.50;;
18796;SDS011;9526;52.612;13.300;2023-03-31T10:18:54;6.60;;;2.00;;
18796;SDS011;9526;52.612;13.300;2023-03-31T10:21:34;7.70;;;1.90;;
18796;SDS011;9526;52.612;13.300;2023-03-31T10:23:59;7.85;;;1.60;;
18796;SDS011;9526;52.612;13.300;2023-03-31T10:26:24;5.93;;;1.50;;
18796;SDS011;9526;52.612;13.300;2023-03-31T10:28:49;7.97;;;1.88;;
18796;SDS011;9526;52.612;13.300;2023-03-31T10:31:15;6.10;;;1.65;;
18796;SDS011;9526;52.612;13.300;2023-03-31T10:33:41;4.90;;;1.52;;
18796;SDS011;9526;52.612;13.300;2023-03-31T10:36:13;8.18;;;1.85;;
18796;SDS011;9526;52.612;13.300;2023-03-31T10:38:44;5.43;;;1.75;;
18796;SDS011;9526;52.612;13.300;2023-03-31T10:41:10;6.03;;;1.60;;
18796;SDS011;9526;52.612;13.300;2023-03-31T10:43:40;5.45;;;2.28;;
18796;SDS011;9526;52.612;13.300;2023-03-31T10:46:10;3.85;;;1.63;;
18796;SDS011;9526;52.612;13.300;2023-03-31T10:48:35;6.72;;;2.30;;
18796;SDS011;9526;52.612;13.300;2023-03-31T10:51:03;6.60;;;2.00;;
18796;SDS011;9526;52.612;13.300;2023-03-31T10:53:40;5.55;;;1.98;;
18796;SDS011;9526;52.612;13.300;2023-03-31T10:56:08;5.60;;;1.95;;
18796;SDS011;9526;52.612;13.300;2023-03-31T10:58:55;4.85;;;1.95;;
18796;SDS011;9526;52.612;13.300;2023-03-31T11:01:36;6.90;;;2.30;;
18796;SDS011;9526;52.612;13.300;2023-03-31T11:04:20;6.25;;;2.30;;
18796;SDS011;9526;52.612;13.300;2023-03-31T11:07:07;7.72;;;2.95;;
18796;SDS011;9526;52.612;13.300;2023-03-31T11:09:53;6.90;;;2.63;;
18796;SDS011;9526;52.612;13.300;2023-03-31T11:12:41;8.38;;;2.30;;
18796;SDS011;9526;52.612;13.300;2023-03-31T11:15:14;5.88;;;1.83;;
18796;SDS011;9526;52.612;13.300;2023-03-31T11:17:51;5.60;;;1.80;;
18796;SDS011;9526;52.612;13.300;2023-03-31T11:20:34;3.72;;;1.60;;
18796;SDS011;9526;52.612;13.300;2023-03-31T11:23:09;3.40;;;1.50;;
18796;SDS011;9526;52.612;13.300;2023-03-31T11:25:42;3.80;;;1.42;;
18796;SDS011;9526;52.612;13.300;2023-03-31T11:28:25;3.58;;;1.35;;
18796;SDS011;9526;52.612;13.300;2023-03-31T11:31:06;3.33;;;1.58;;
18796;SDS011;9526;52.612;13.300;2023-03-31T11:33:55;4.00;;;1.50;;
18796;SDS011;9526;52.612;13.300;2023-03-31T11:36:46;2.67;;;0.98;;
18796;SDS011;9526;52.612;13.300;2023-03-31T11:39:38;4.32;;;1.20;;
18796;SDS011;9526;52.612;13.300;2023-03-31T11:42:13;3.95;;;1.40;;
18796;SDS011;9526;52.612;13.300;2023-03-31T11:44:43;10.35;;;1.65;;
18796;SDS011;9526;52.612;13.300;2023-03-31T11:47:14;4.82;;;2.15;;
18796;SDS011;9526;52.612;13.300;2023-03-31T11:49:42;5.75;;;1.25;;
18796;SDS011;9526;52.612;13.300;2023-03-31T11:52:13;5.20;;;1.45;;
18796;SDS011;9526;52.612;13.300;2023-03-31T11:54:41;6.18;;;2.00;;
18796;SDS011;9526;52.612;13.300;2023-03-31T11:57:16;3.35;;;1.55;;
18796;SDS011;9526;52.612;13.300;2023-03-31T11:59:45;9.63;;;1.52;;
18796;SDS011;9526;52.612;13.300;2023-03-31T12:02:17;3.42;;;1.30;;
18796;SDS011;9526;52.612;13.300;2023-03-31T12:04:46;3.60;;;1.63;;
18796;SDS011;9526;52.612;13.300;2023-03-31T12:07:19;4.50;;;1.40;;
18796;SDS011;9526;52.612;13.300;2023-03-31T12:09:49;4.82;;;1.50;;
18796;SDS011;9526;52.612;13.300;2023-03-31T12:12:18;19.20;;;1.83;;
18796;SDS011;9526;52.612;13.300;2023-03-31T12:14:47;6.20;;;1.60;;
18796;SDS011;9526;52.612;13.300;2023-03-31T12:17:14;6.82;;;1.80;;
18796;SDS011;9526;52.612;13.300;2023-03-31T12:19:43;6.07;;;2.15;;
18796;SDS011;9526;52.612;13.300;2023-03-31T12:22:12;9.25;;;2.50;;
18796;SDS011;9526;52.612;13.300;2023-03-31T12:24:40;6.43;;;2.00;;
18796;SDS011;9526;52.612;13.300;2023-03-31T12:27:06;7.97;;;2.20;;
18796;SDS011;9526;52.612;13.300;2023-03-31T12:29:37;7.63;;;2.20;;
18796;SDS011;9526;52.612;13.300;2023-03-31T12:32:05;9.93;;;2.67;;
18796;SDS011;9526;52.612;13.300;2023-03-31T12:34:34;8.73;;;2.67;;
18796;SDS011;9526;52.612;13.300;2023-03-31T12:37:13;9.18;;;2.83;;
18796;SDS011;9526;52.612;13.300;2023-03-31T12:40:17;9.88;;;2.95;;
18796;SDS011;9526;52.612;13.300;2023-03-31T12:43:03;8.68;;;3.20;;
18796;SDS011;9526;52.612;13.300;2023-03-31T12:45:46;9.50;;;3.40;;
18796;SDS011;9526;52.612;13.300;2023-03-31T12:48:25;5.55;;;3.03;;
18796;SDS011;9526;52.612;13.300;2023-03-31T12:51:13;7.57;;;3.10;;
18796;SDS011;9526;52.612;13.300;2023-03-31T12:53:53;8.35;;;3.50;;
18796;SDS011;9526;52.612;13.300;2023-03-31T12:59:39;8.00;;;2.65;;
18796;SDS011;9526;52.612;13.300;2023-03-31T13:02:16;6.07;;;3.10;;
18796;SDS011;9526;52.612;13.300;2023-03-31T13:04:47;9.02;;;3.33;;
18796;SDS011;9526;52.612;13.300;2023-03-31T13:07:13;9.25;;;3.10;;
18796;SDS011;9526;52.612;13.300;2023-03-31T13:13:01;6.55;;;3.63;;
18796;SDS011;9526;52.612;13.300;2023-03-31T13:15:30;7.82;;;3.80;;
18796;SDS011;9526;52.612;13.300;2023-03-31T13:17:55;8.45;;;3.45;;
18796;SDS011;9526;52.612;13.300;2023-03-31T13:20:32;6.68;;;2.83;;
18796;SDS011;9526;52.612;13.300;2023-03-31T13:22:58;5.65;;;3.20;;
18796;SDS011;9526;52.612;13.300;2023-03-31T13:25:29;8.60;;;3.40;;
18796;SDS011;9526;52.612;13.300;2023-03-31T13:30:58;8.48;;;3.13;;
18796;SDS011;9526;52.612;13.300;2023-03-31T13:33:24;5.20;;;2.75;;
18796;SDS011;9526;52.612;13.300;2023-03-31T13:35:55;8.73;;;2.38;;
18796;SDS011;9526;52.612;13.300;2023-03-31T13:38:40;5.75;;;2.00;;
18796;SDS011;9526;52.612;13.300;2023-03-31T13:41:22;5.60;;;2.70;;
18796;SDS011;9526;52.612;13.300;2023-03-31T13:43:58;6.03;;;3.17;;
18796;SDS011;9526;52.612;13.300;2023-03-31T13:53:01;13.50;;;3.63;;
18796;SDS011;9526;52.612;13.300;2023-03-31T13:55:54;8.95;;;3.10;;
18796;SDS011;9526;52.612;13.300;2023-03-31T14:01:55;9.55;;;5.68;;
18796;SDS011;9526;52.612;13.300;2023-03-31T14:04:52;11.88;;;6.28;;
18796;SDS011;9526;52.612;13.300;2023-03-31T14:07:42;12.73;;;6.13;;
18796;SDS011;9526;52.612;13.300;2023-03-31T14:10:20;11.00;;;6.10;;
18796;SDS011;9526;52.612;13.300;2023-03-31T14:12:47;8.90;;;4.65;;
18796;SDS011;9526;52.612;13.300;2023-03-31T14:15:16;13.95;;;7.15;;
18796;SDS011;9526;52.612;13.300;2023-03-31T14:17:42;24.20;;;11.25;;
18796;SDS011;9526;52.612;13.300;2023-03-31T14:20:12;13.15;;;7.18;;
18796;SDS011;9526;52.612;13.300;2023-03-31T14:22:54;30.83;;;14.35;;
18796;SDS011;9526;52.612;13.300;2023-03-31T14:25:36;19.75;;;9.80;;
18796;SDS011;9526;52.612;13.300;2023-03-31T14:28:17;23.42;;;4.72;;
18796;SDS011;9526;52.612;13.300;2023-03-31T14:31:20;2.85;;;1.70;;
18796;SDS011;9526;52.612;13.300;2023-03-31T14:33:52;5.97;;;2.75;;
18796;SDS011;9526;52.612;13.300;2023-03-31T14:36:42;3.10;;;1.70;;
18796;SDS011;9526;52.612;13.300;2023-03-31T14:39:19;3.13;;;1.33;;
18796;SDS011;9526;52.612;13.300;2023-03-31T14:41:45;3.13;;;1.33;;
18796;SDS011;9526;52.612;13.300;2023-03-31T14:44:14;3.05;;;1.40;;
18796;SDS011;9526;52.612;13.300;2023-03-31T14:46:41;6.90;;;1.60;;
18796;SDS011;9526;52.612;13.300;2023-03-31T14:49:05;1.35;;;1.00;;
18796;SDS011;9526;52.612;13.300;2023-03-31T14:51:46;6.05;;;1.60;;
18796;SDS011;9526;52.612;13.300;2023-03-31T14:54:13;1.90;;;1.05;;
18796;SDS011;9526;52.612;13.300;2023-03-31T14:56:39;4.07;;;1.30;;
18796;SDS011;9526;52.612;13.300;2023-03-31T14:59:03;1.92;;;1.20;;
18796;SDS011;9526;52.612;13.300;2023-03-31T15:01:29;8.32;;;1.50;;
18796;SDS011;9526;52.612;13.300;2023-03-31T15:03:56;4.10;;;1.25;;
18796;SDS011;9526;52.612;13.300;2023-03-31T15:06:22;4.72;;;1.27;;
18796;SDS011;9526;52.612;13.300;2023-03-31T15:08:48;3.67;;;1.50;;
18796;SDS011;9526;52.612;13.300;2023-03-31T15:11:16;3.22;;;1.20;;
18796;SDS011;9526;52.612;13.300;2023-03-31T15:13:43;4.00;;;1.40;;
18796;SDS011;9526;52.612;13.300;2023-03-31T15:16:29;3.33;;;1.20;;
18796;SDS011;9526;52.612;13.300;2023-03-31T15:18:58;2.72;;;1.60;;
18796;SDS011;9526;52.612;13.300;2023-03-31T15:21:27;2.53;;;1.50;;
18796;SDS011;9526;52.612;13.300;2023-03-31T15:23:57;8.70;;;1.90;;
18796;SDS011;9526;52.612;13.300;2023-03-31T15:26:21;2.22;;;1.90;;
18796;SDS011;9526;52.612;13.300;2023-03-31T15:29:02;5.03;;;2.40;;
18796;SDS011;9526;52.612;13.300;2023-03-31T15:31:30;10.85;;;2.38;;
18796;SDS011;9526;52.612;13.300;2023-03-31T15:33:55;4.85;;;1.65;;
18796;SDS011;9526;52.612;13.300;2023-03-31T15:36:19;8.52;;;1.17;;